This is the latest recevied weather packets stored in our database for station/object AB8Y-13. If no packets are shown the sender has not sent any weather packets the latest 10 day(s).
| Time | Temp. | Humidity | Pressure | Rain* | Wind** | Luminosity | Snow |
|---|---|---|---|---|---|---|---|
| 1777762761 | 8.89° C | 46% | 1015.6 hPa | 0 mm | - | 63 W/m² | - |
| 1777762456 | 8.89° C | 41% | 1015.7 hPa | 0 mm | - | 64 W/m² | - |
| 1777762153 | 9.44° C | 39% | 1015.7 hPa | 0 mm | - | 58 W/m² | - |
| 1777761849 | 10° C | 35% | 1015.5 hPa | 0 mm | - | 70 W/m² | - |
| 1777761546 | 10.56° C | 33% | 1015.5 hPa | 0 mm | - | 81 W/m² | - |
| 1777761244 | 10° C | 35% | 1015.5 hPa | 0 mm | - | 257 W/m² | - |
| 1777760942 | 9.44° C | 36% | 1015.9 hPa | 0 mm | - | 275 W/m² | - |
| 1777760639 | 9.44° C | 33% | 1015.7 hPa | 0 mm | - | 99 W/m² | - |
| 1777760334 | 10° C | 34% | 1015.7 hPa | 0 mm | - | 103 W/m² | - |
| 1777760032 | 9.44° C | 36% | 1015.8 hPa | 0 mm | - | 131 W/m² | - |
| 1777759729 | 9.44° C | 38% | 1015.8 hPa | 0 mm | - | 134 W/m² | - |
| 1777759424 | 9.44° C | 35% | 1015.8 hPa | 0 mm | - | 111 W/m² | - |
| 1777759121 | 10° C | 33% | 1015.8 hPa | 0 mm | - | 115 W/m² | - |
| 1777758819 | 10.56° C | 34% | 1015.8 hPa | 0 mm | - | 121 W/m² | - |
| 1777758515 | 11.11° C | 31% | 1015.8 hPa | 0 mm | - | 431 W/m² | - |
| 1777758212 | 11.11° C | 33% | 1015.7 hPa | 0 mm | - | 501 W/m² | - |
| 1777757909 | 11.67° C | 30% | 1015.9 hPa | 0 mm | - | 478 W/m² | - |
| 1777757606 | 11.67° C | 33% | 1015.8 hPa | 0 mm | - | 635 W/m² | - |
| 1777757305 | 11.11° C | 38% | 1015.9 hPa | 0 mm | - | 639 W/m² | - |
| 1777757003 | 12.22° C | 30% | 1015.8 hPa | 0 mm | - | 342 W/m² | - |
| 1777756700 | 11.11° C | 32% | 1016 hPa | 0 mm | - | 702 W/m² | - |
| 1777756401 | 10° C | 36% | 1016 hPa | 0 mm | - | 660 W/m² | - |
| 1777756098 | 10° C | 32% | 1016 hPa | 0 mm | - | 692 W/m² | - |
| 1777755796 | 10° C | 37% | 1016 hPa | 0 mm | - | 228 W/m² | - |
| 1777755493 | 10.56° C | 41% | 1016.2 hPa | 0 mm | - | 237 W/m² | - |
* Rain latest hour (hover to see other rain measurements)
** Current wind speed in m/s (hover to see current wind gust speed)